createdAt,value
2023-02-06T00:01:51.139Z,0.70
2023-02-06T00:04:18.152Z,0.70
2023-02-06T00:06:45.415Z,0.70
2023-02-06T00:09:12.440Z,0.70
2023-02-06T00:11:39.442Z,0.70
2023-02-06T00:14:07.165Z,0.70
2023-02-06T00:16:34.358Z,0.70
2023-02-06T00:19:01.457Z,0.70
2023-02-06T00:21:28.767Z,0.70
2023-02-06T00:23:56.647Z,0.70
2023-02-06T00:26:23.912Z,0.70
2023-02-06T00:28:50.907Z,0.60
2023-02-06T00:31:18.180Z,0.60
2023-02-06T00:33:45.213Z,0.50
2023-02-06T00:36:12.194Z,0.50
2023-02-06T00:38:39.261Z,0.50
2023-02-06T00:41:06.215Z,0.50
2023-02-06T00:43:33.186Z,0.50
2023-02-06T00:46:00.192Z,0.40
2023-02-06T00:48:27.201Z,0.40
2023-02-06T00:50:54.253Z,0.40
2023-02-06T00:53:21.332Z,0.30
2023-02-06T00:55:48.336Z,0.30
2023-02-06T00:58:15.422Z,0.30
2023-02-06T01:00:43.634Z,0.30
2023-02-06T01:03:10.670Z,0.30
2023-02-06T01:05:37.948Z,0.30
2023-02-06T01:08:05.101Z,0.30
2023-02-06T01:10:32.233Z,0.30
2023-02-06T01:13:00.280Z,0.30
2023-02-06T01:15:27.271Z,0.30
2023-02-06T01:17:54.264Z,0.20
2023-02-06T01:20:21.761Z,0.20
2023-02-06T01:22:48.779Z,0.20
2023-02-06T01:25:15.763Z,0.20
2023-02-06T01:27:42.819Z,0.20
2023-02-06T01:30:10.275Z,0.20
2023-02-06T01:32:38.006Z,0.20
2023-02-06T01:35:06.100Z,0.20
2023-02-06T01:37:34.190Z,0.10
2023-02-06T01:40:01.192Z,0.20
2023-02-06T01:42:28.167Z,0.20
2023-02-06T01:45:13.976Z,0.20
2023-02-06T01:47:40.983Z,0.20
2023-02-06T01:50:08.025Z,0.20
2023-02-06T01:52:35.096Z,0.20
2023-02-06T01:55:02.816Z,0.30
2023-02-06T01:57:29.842Z,0.30
2023-02-06T01:59:57.835Z,0.30
2023-02-06T02:02:25.356Z,0.30
2023-02-06T02:04:53.443Z,0.30
2023-02-06T02:07:24.351Z,0.30
2023-02-06T02:09:52.302Z,0.20
2023-02-06T02:12:19.311Z,0.20
2023-02-06T02:14:46.708Z,0.20
2023-02-06T02:17:13.656Z,0.20
2023-02-06T02:19:47.336Z,0.20
2023-02-06T02:22:34.148Z,0.20
2023-02-06T02:25:20.008Z,0.20
2023-02-06T02:28:05.769Z,0.20
2023-02-06T02:30:35.938Z,0.20
2023-02-06T02:33:05.912Z,0.20
2023-02-06T02:35:34.963Z,0.20
2023-02-06T02:38:07.220Z,0.20
2023-02-06T02:40:39.799Z,0.20
2023-02-06T02:43:09.371Z,0.20
2023-02-06T02:45:40.905Z,0.20
2023-02-06T02:48:12.373Z,0.20
2023-02-06T02:50:39.365Z,0.10
2023-02-06T02:53:06.842Z,0.10
2023-02-06T02:55:34.147Z,0.10
2023-02-06T02:58:07.471Z,0.10
2023-02-06T03:00:38.458Z,0.10
2023-02-06T03:03:05.849Z,0.10
2023-02-06T03:05:36.554Z,0.10
2023-02-06T03:08:10.696Z,0.00
2023-02-06T03:10:38.147Z,0.00
2023-02-06T03:13:10.754Z,0.00
2023-02-06T03:15:48.970Z,0.00
2023-02-06T03:18:19.936Z,0.00
2023-02-06T03:20:46.935Z,-0.10
2023-02-06T03:23:18.906Z,-0.10
2023-02-06T03:25:46.040Z,-0.10
2023-02-06T03:28:17.474Z,-0.10
2023-02-06T03:30:48.463Z,-0.10
2023-02-06T03:33:15.641Z,-0.20
2023-02-06T03:35:42.668Z,-0.20
2023-02-06T03:38:09.787Z,-0.20
2023-02-06T03:40:36.755Z,-0.20
2023-02-06T03:43:03.887Z,-0.20
2023-02-06T03:45:40.526Z,-0.20
2023-02-06T03:48:08.966Z,-0.20
2023-02-06T03:50:35.948Z,-0.20
2023-02-06T03:53:03.367Z,-0.20
2023-02-06T03:55:30.336Z,-0.20
2023-02-06T03:57:59.252Z,-0.20
2023-02-06T04:00:26.260Z,-0.20
2023-02-06T04:02:53.253Z,-0.20
2023-02-06T04:05:20.311Z,-0.20
2023-02-06T04:07:47.362Z,-0.20
2023-02-06T04:10:14.355Z,-0.20
2023-02-06T04:12:41.331Z,-0.20
2023-02-06T04:15:08.419Z,-0.30
2023-02-06T04:17:49.631Z,-0.30
2023-02-06T04:20:20.824Z,-0.30
2023-02-06T04:22:47.864Z,-0.30
2023-02-06T04:25:14.877Z,-0.30
2023-02-06T04:27:41.855Z,-0.30
2023-02-06T04:30:09.147Z,-0.30
2023-02-06T04:32:36.164Z,-0.40
2023-02-06T04:35:03.209Z,-0.40
2023-02-06T04:37:30.256Z,-0.40
2023-02-06T04:39:57.226Z,-0.50
2023-02-06T04:42:24.200Z,-0.50
2023-02-06T04:44:51.204Z,-0.50
2023-02-06T04:47:18.253Z,-0.50
2023-02-06T04:49:45.242Z,-0.60
2023-02-06T04:52:12.241Z,-0.60
2023-02-06T04:54:39.241Z,-0.70
2023-02-06T04:57:06.210Z,-0.60
2023-02-06T04:59:33.242Z,-0.60
2023-02-06T05:02:00.251Z,-0.60
2023-02-06T05:04:27.281Z,-0.70
2023-02-06T05:06:54.265Z,-0.70
2023-02-06T05:09:21.272Z,-0.70
2023-02-06T05:11:48.260Z,-0.70
2023-02-06T05:14:15.281Z,-0.80
2023-02-06T05:16:42.278Z,-0.70
2023-02-06T05:19:09.735Z,-0.80
2023-02-06T05:21:36.704Z,-0.70
2023-02-06T05:24:03.672Z,-0.80
2023-02-06T05:26:30.644Z,-0.80
2023-02-06T05:28:57.653Z,-0.80
2023-02-06T05:31:24.715Z,-0.90
2023-02-06T05:33:52.480Z,-0.90
2023-02-06T05:36:19.950Z,-0.90
2023-02-06T05:38:47.319Z,-1.00
2023-02-06T05:41:14.659Z,-1.00
2023-02-06T05:43:41.624Z,-1.00
2023-02-06T05:46:08.674Z,-1.00
2023-02-06T05:48:35.941Z,-1.00
2023-02-06T05:51:03.106Z,-1.00
2023-02-06T05:53:30.103Z,-1.10
2023-02-06T05:55:57.184Z,-1.00
2023-02-06T05:58:24.234Z,-1.10
2023-02-06T06:00:51.272Z,-1.00
2023-02-06T06:03:19.094Z,-1.10
2023-02-06T06:05:46.491Z,-1.10
2023-02-06T06:08:13.571Z,-1.10
2023-02-06T06:10:40.544Z,-1.10
2023-02-06T06:13:08.268Z,-1.20
2023-02-06T06:15:35.509Z,-1.20
2023-02-06T06:18:02.862Z,-1.20
2023-02-06T06:20:29.874Z,-1.20
2023-02-06T06:22:56.901Z,-1.20
2023-02-06T06:25:23.914Z,-1.20
2023-02-06T06:27:50.936Z,-1.30
2023-02-06T06:30:18.022Z,-1.30
2023-02-06T06:32:45.056Z,-1.30
2023-02-06T06:35:12.035Z,-1.30
2023-02-06T06:37:39.120Z,-1.30
2023-02-06T06:40:06.325Z,-1.30
2023-02-06T06:42:33.310Z,-1.30
2023-02-06T06:45:00.308Z,-1.30
2023-02-06T06:47:27.639Z,-1.30
2023-02-06T06:49:54.686Z,-1.30
2023-02-06T06:52:25.373Z,-1.30
2023-02-06T06:54:55.271Z,-1.30
2023-02-06T06:57:22.253Z,-1.30
2023-02-06T06:59:49.394Z,-1.30
2023-02-06T07:02:16.648Z,-1.30
2023-02-06T07:04:43.712Z,-1.30
2023-02-06T07:07:10.761Z,-1.30
2023-02-06T07:09:37.782Z,-1.30
2023-02-06T07:12:04.975Z,-1.20
2023-02-06T07:14:31.975Z,-1.10
2023-02-06T07:16:59.894Z,-0.70
2023-02-06T07:19:26.957Z,-0.30
2023-02-06T07:21:53.924Z,-0.10
2023-02-06T07:24:20.970Z,-0.10
2023-02-06T07:26:48.044Z,-0.10
2023-02-06T07:29:15.040Z,-0.20
2023-02-06T07:31:42.123Z,-0.20
2023-02-06T07:34:09.156Z,-0.40
2023-02-06T07:36:36.265Z,-0.40
2023-02-06T07:39:03.664Z,-0.50
2023-02-06T07:41:30.656Z,-0.50
2023-02-06T07:43:57.653Z,-0.50
2023-02-06T07:46:24.736Z,-0.50
2023-02-06T07:48:51.772Z,-0.60
2023-02-06T07:51:18.819Z,-0.50
2023-02-06T07:53:45.784Z,-0.60
2023-02-06T07:56:13.419Z,-0.60
2023-02-06T07:58:40.626Z,-0.60
2023-02-06T08:01:07.868Z,-0.60
2023-02-06T08:03:34.939Z,-0.60
2023-02-06T08:06:06.817Z,-0.60
2023-02-06T08:08:33.784Z,-0.60
2023-02-06T08:11:03.836Z,-0.60
2023-02-06T08:13:30.799Z,-0.60
2023-02-06T08:15:57.767Z,-0.60
2023-02-06T08:18:24.741Z,-0.60
2023-02-06T08:20:51.785Z,-0.60
2023-02-06T08:23:20.855Z,-0.60
2023-02-06T08:25:48.006Z,-0.60
2023-02-06T08:28:16.934Z,-0.60
2023-02-06T08:30:44.069Z,-0.60
2023-02-06T08:33:11.108Z,-0.60
2023-02-06T08:35:38.181Z,-0.60
2023-02-06T08:38:05.181Z,-0.50
2023-02-06T08:40:32.189Z,-0.60
2023-02-06T08:42:59.212Z,-0.50
2023-02-06T08:45:26.181Z,-0.50
2023-02-06T08:47:53.169Z,-0.50
2023-02-06T08:50:20.142Z,-0.50
2023-02-06T08:52:47.175Z,-0.50
2023-02-06T08:55:14.223Z,-0.50
2023-02-06T08:57:41.302Z,-0.40
2023-02-06T09:00:13.670Z,-0.40
2023-02-06T09:02:40.763Z,-0.40
2023-02-06T09:05:08.124Z,-0.40
2023-02-06T09:07:35.184Z,-0.40
2023-02-06T09:10:02.173Z,-0.40
2023-02-06T09:12:29.369Z,-0.40
2023-02-06T09:14:56.432Z,-0.40
2023-02-06T09:17:23.472Z,-0.30
2023-02-06T09:19:50.451Z,-0.20
2023-02-06T09:22:17.432Z,-0.20
2023-02-06T09:24:44.451Z,-0.10
2023-02-06T09:27:11.494Z,-0.10
2023-02-06T09:29:38.486Z,0.00
2023-02-06T09:32:05.484Z,0.10
2023-02-06T09:34:32.533Z,0.10
2023-02-06T09:37:02.916Z,0.10
2023-02-06T09:39:30.154Z,0.10
2023-02-06T09:42:03.386Z,0.10
2023-02-06T09:44:41.251Z,0.10
2023-02-06T09:47:17.396Z,0.10
2023-02-06T09:49:45.719Z,0.10
2023-02-06T09:52:17.106Z,0.00
2023-02-06T09:55:02.938Z,0.00
2023-02-06T09:57:38.492Z,0.00
2023-02-06T10:00:08.678Z,0.00
2023-02-06T10:02:48.640Z,0.10
2023-02-06T10:05:15.863Z,0.10
2023-02-06T10:07:42.912Z,0.30
2023-02-06T10:10:15.330Z,0.30
2023-02-06T10:12:46.925Z,0.30
2023-02-06T10:15:15.343Z,0.30
2023-02-06T10:17:51.628Z,0.30
2023-02-06T10:20:19.970Z,0.30
2023-02-06T10:22:52.138Z,0.40
2023-02-06T10:25:23.834Z,0.50
2023-02-06T10:27:53.400Z,0.50
2023-02-06T10:30:22.529Z,0.50
2023-02-06T10:32:58.856Z,0.60
2023-02-06T10:35:39.788Z,0.60
2023-02-06T10:38:13.050Z,0.60
2023-02-06T10:40:43.050Z,0.60
2023-02-06T10:43:19.022Z,0.60
2023-02-06T10:45:49.149Z,0.50
2023-02-06T10:48:21.622Z,0.50
2023-02-06T10:50:52.671Z,0.50
2023-02-06T10:53:20.800Z,0.50
2023-02-06T10:55:49.509Z,0.50
2023-02-06T10:58:30.542Z,0.50
2023-02-06T11:01:13.868Z,0.50
2023-02-06T11:03:51.062Z,0.50
2023-02-06T11:06:24.372Z,0.50
2023-02-06T11:08:51.592Z,0.50
2023-02-06T11:11:18.730Z,0.50
2023-02-06T11:13:45.975Z,0.50
2023-02-06T11:16:15.472Z,0.50
2023-02-06T11:18:46.040Z,0.50
2023-02-06T11:21:14.113Z,0.60
2023-02-06T11:23:43.645Z,0.60
2023-02-06T11:26:17.707Z,0.60
2023-02-06T11:28:52.402Z,0.60
2023-02-06T11:31:20.231Z,0.60
2023-02-06T11:33:51.450Z,0.60
2023-02-06T11:36:26.873Z,0.70
2023-02-06T11:38:57.303Z,0.60
2023-02-06T11:41:24.509Z,0.70
2023-02-06T11:43:51.990Z,0.70
2023-02-06T11:46:26.369Z,0.60
2023-02-06T11:48:56.469Z,0.60
2023-02-06T11:51:26.100Z,0.70
2023-02-06T11:54:00.000Z,0.70
2023-02-06T11:56:27.455Z,0.70
2023-02-06T11:59:01.399Z,0.70
2023-02-06T12:01:28.414Z,0.70
2023-02-06T12:03:56.451Z,0.70
2023-02-06T12:06:27.534Z,0.80
2023-02-06T12:08:55.291Z,0.80
2023-02-06T12:11:28.024Z,0.80
2023-02-06T12:14:15.605Z,0.80
2023-02-06T12:16:43.225Z,0.70
2023-02-06T12:19:19.455Z,0.60
2023-02-06T12:21:48.658Z,0.60
2023-02-06T12:24:15.726Z,0.60
2023-02-06T12:26:44.002Z,0.60
2023-02-06T12:29:19.241Z,0.60
2023-02-06T12:31:52.993Z,0.60
2023-02-06T12:34:21.455Z,0.50
2023-02-06T12:37:13.910Z,0.50
2023-02-06T12:39:41.872Z,0.50
2023-02-06T12:42:08.974Z,0.40
2023-02-06T12:44:51.439Z,0.40
2023-02-06T12:47:24.931Z,0.40
2023-02-06T12:50:05.843Z,0.40
2023-02-06T12:52:45.907Z,0.40
2023-02-06T12:55:12.874Z,0.40
2023-02-06T12:57:39.999Z,0.50
2023-02-06T13:00:07.487Z,0.50
2023-02-06T13:02:40.661Z,0.40
2023-02-06T13:05:15.517Z,0.40
2023-02-06T13:07:49.202Z,0.40
2023-02-06T13:10:20.279Z,0.40
2023-02-06T13:12:52.853Z,0.30
2023-02-06T13:15:23.692Z,0.30
2023-02-06T13:17:51.241Z,0.30
2023-02-06T13:20:19.010Z,0.30
2023-02-06T13:23:04.676Z,0.30
2023-02-06T13:25:31.695Z,0.30
2023-02-06T13:28:02.422Z,0.30
2023-02-06T13:30:29.571Z,0.30
2023-02-06T13:32:57.164Z,0.30
2023-02-06T13:35:25.573Z,0.30
2023-02-06T13:38:09.581Z,0.30
2023-02-06T13:40:36.837Z,0.20
2023-02-06T13:43:19.361Z,0.20
2023-02-06T13:46:11.067Z,0.20
2023-02-06T13:48:46.816Z,0.20
2023-02-06T13:51:19.111Z,0.20
2023-02-06T13:54:01.438Z,0.10
2023-02-06T13:56:34.779Z,0.10
2023-02-06T13:59:06.388Z,0.10
2023-02-06T14:01:33.679Z,0.00
2023-02-06T14:04:01.221Z,0.00
2023-02-06T14:06:37.598Z,0.00
2023-02-06T14:09:11.220Z,-0.10
2023-02-06T14:11:41.311Z,-0.10
2023-02-06T14:14:17.617Z,-0.10
2023-02-06T14:17:03.419Z,-0.10
2023-02-06T14:19:43.298Z,-0.10
2023-02-06T14:22:17.597Z,-0.10
2023-02-06T14:25:08.684Z,-0.10
2023-02-06T14:27:43.542Z,-0.10
2023-02-06T14:30:16.759Z,0.00
2023-02-06T14:32:57.095Z,0.00
2023-02-06T14:35:27.624Z,0.00
2023-02-06T14:37:57.865Z,0.00
2023-02-06T14:40:25.900Z,0.10
2023-02-06T14:43:01.151Z,0.10
2023-02-06T14:45:41.626Z,0.10
2023-02-06T14:48:38.892Z,0.10
2023-02-06T14:51:05.936Z,0.10
2023-02-06T14:53:35.848Z,0.10
2023-02-06T14:56:23.109Z,0.20
2023-02-06T15:10:46.229Z,0.00
2023-02-06T15:21:19.680Z,0.00
2023-02-06T15:24:10.655Z,0.00
2023-02-06T15:26:56.515Z,0.00
2023-02-06T15:29:24.276Z,-0.10
2023-02-06T15:31:51.730Z,-0.10
2023-02-06T15:34:19.333Z,-0.10
2023-02-06T15:36:46.339Z,-0.10
2023-02-06T15:39:14.253Z,-0.20
2023-02-06T15:41:41.982Z,-0.20
2023-02-06T15:44:18.299Z,-0.20
2023-02-06T15:46:47.163Z,-0.20
2023-02-06T15:49:19.172Z,-0.20
2023-02-06T15:51:51.871Z,-0.20
2023-02-06T15:54:19.737Z,-0.20
2023-02-06T15:56:50.941Z,-0.20
2023-02-06T15:59:20.402Z,-0.20
2023-02-06T16:01:47.592Z,-0.30
2023-02-06T16:04:19.961Z,-0.30
2023-02-06T16:27:03.524Z,-0.30
2023-02-06T16:29:31.658Z,-0.30
2023-02-06T16:32:02.749Z,-0.30
2023-02-06T16:34:36.666Z,-0.30
2023-02-06T16:37:10.763Z,-0.30
2023-02-06T16:39:40.583Z,-0.30
2023-02-06T16:42:14.994Z,-0.30
2023-02-06T16:44:45.367Z,-0.30
2023-02-06T16:47:16.984Z,-0.30
2023-02-06T16:49:44.184Z,-0.40
2023-02-06T16:52:14.591Z,-0.30
2023-02-06T16:54:41.672Z,-0.30
2023-02-06T16:57:21.624Z,-0.30
2023-02-06T16:59:49.353Z,-0.30
2023-02-06T17:02:16.501Z,-0.30
2023-02-06T17:07:30.810Z,-0.30
2023-02-06T17:09:58.280Z,-0.30
2023-02-06T17:12:25.368Z,-0.30
2023-02-06T17:14:52.439Z,-0.30
2023-02-06T17:17:20.261Z,-0.30
2023-02-06T17:19:47.518Z,-0.30
2023-02-06T17:22:14.692Z,-0.30
2023-02-06T17:24:42.157Z,-0.30
2023-02-06T17:27:11.463Z,-0.30
2023-02-06T17:29:38.539Z,-0.30
2023-02-06T17:34:48.681Z,-0.30
2023-02-06T17:37:21.941Z,-0.30
2023-02-06T17:39:49.728Z,-0.30
2023-02-06T17:42:16.859Z,-0.30
2023-02-06T17:44:44.152Z,-0.30
2023-02-06T17:47:11.236Z,-0.30
2023-02-06T17:49:38.402Z,-0.30
2023-02-06T17:52:05.485Z,-0.30
2023-02-06T17:54:32.537Z,-0.30
2023-02-06T17:56:59.660Z,-0.30
2023-02-06T17:59:26.761Z,-0.30
2023-02-06T18:01:53.865Z,-0.30
2023-02-06T18:04:21.302Z,-0.30
2023-02-06T18:06:48.378Z,-0.40
2023-02-06T18:09:15.439Z,-0.30
2023-02-06T18:11:42.566Z,-0.30
2023-02-06T18:14:09.559Z,-0.30
2023-02-06T18:16:37.863Z,-0.30
2023-02-06T18:19:04.936Z,-0.40
2023-02-06T18:21:32.069Z,-0.40
2023-02-06T18:23:59.142Z,-0.40
2023-02-06T18:26:27.221Z,-0.40
2023-02-06T18:28:54.288Z,-0.40
2023-02-06T18:31:22.822Z,-0.40
2023-02-06T18:33:49.940Z,-0.40
2023-02-06T18:36:17.098Z,-0.40
2023-02-06T18:38:44.335Z,-0.50
2023-02-06T18:41:31.313Z,-0.50
2023-02-06T18:44:05.103Z,-0.50
2023-02-06T18:46:33.293Z,-0.50
2023-02-06T18:49:01.393Z,-0.50
2023-02-06T18:51:29.540Z,-0.50
2023-02-06T18:53:59.775Z,-0.50
2023-02-06T18:56:26.873Z,-0.50
2023-02-06T18:58:54.016Z,-0.60
2023-02-06T19:01:21.752Z,-0.50
2023-02-06T19:03:49.067Z,-0.60
2023-02-06T19:06:17.185Z,-0.60
2023-02-06T19:08:46.690Z,-0.60
2023-02-06T19:11:14.020Z,-0.60
2023-02-06T19:13:41.100Z,-0.60
2023-02-06T19:16:09.542Z,-0.60
2023-02-06T19:18:40.955Z,-0.60
2023-02-06T19:21:11.446Z,-0.70
2023-02-06T19:23:38.925Z,-0.70
2023-02-06T19:26:07.108Z,-0.70
2023-02-06T19:28:38.170Z,-0.70
2023-02-06T19:31:05.626Z,-0.80
2023-02-06T19:33:33.371Z,-0.80
2023-02-06T19:36:05.114Z,-0.80
2023-02-06T19:38:32.200Z,-0.80
2023-02-06T19:41:12.444Z,-0.90
2023-02-06T19:43:39.562Z,-0.90
2023-02-06T19:46:07.480Z,-1.00
2023-02-06T19:48:34.655Z,-1.00
2023-02-06T19:51:02.837Z,-1.00
2023-02-06T19:53:29.931Z,-1.00
2023-02-06T19:55:57.288Z,-1.10
2023-02-06T19:58:25.284Z,-1.10
2023-02-06T20:00:54.433Z,-1.10
2023-02-06T20:03:21.877Z,-1.10
2023-02-06T20:05:48.960Z,-1.20
2023-02-06T20:08:17.431Z,-1.20
2023-02-06T20:10:44.854Z,-1.20
2023-02-06T20:13:11.918Z,-1.20
2023-02-06T20:15:38.976Z,-1.20
2023-02-06T20:18:06.079Z,-1.30
2023-02-06T20:20:33.822Z,-1.30
2023-02-06T20:23:00.943Z,-1.30
2023-02-06T20:25:27.981Z,-1.30
2023-02-06T20:27:55.097Z,-1.30
2023-02-06T20:33:06.178Z,-1.40
2023-02-06T20:35:34.216Z,-1.30
2023-02-06T20:38:01.238Z,-1.40
2023-02-06T20:40:28.544Z,-1.40
2023-02-06T20:42:55.552Z,-1.40
2023-02-06T20:45:22.615Z,-1.50
2023-02-06T20:47:49.636Z,-1.50
2023-02-06T20:50:16.781Z,-1.50
2023-02-06T20:52:43.885Z,-1.50
2023-02-06T20:55:10.987Z,-1.60
2023-02-06T20:57:38.003Z,-1.50
2023-02-06T21:00:05.683Z,-1.50
2023-02-06T21:02:32.743Z,-1.60
2023-02-06T21:04:59.838Z,-1.60
2023-02-06T21:07:26.950Z,-1.60
2023-02-06T21:09:53.982Z,-1.60
2023-02-06T21:12:21.026Z,-1.60
2023-02-06T21:14:48.504Z,-1.60
2023-02-06T21:17:15.537Z,-1.70
2023-02-06T21:19:42.598Z,-1.70
2023-02-06T21:22:09.654Z,-1.70
2023-02-06T21:24:36.704Z,-1.70
2023-02-06T21:27:03.822Z,-1.80
2023-02-06T21:29:30.894Z,-1.80
2023-02-06T21:32:12.681Z,-1.80
2023-02-06T21:34:40.879Z,-1.80
2023-02-06T21:37:08.050Z,-1.90
2023-02-06T21:39:35.081Z,-1.90
2023-02-06T21:42:02.143Z,-1.90
2023-02-06T21:44:29.197Z,-1.90
2023-02-06T21:46:56.268Z,-2.00
2023-02-06T21:49:23.444Z,-2.00
2023-02-06T21:51:50.852Z,-2.00
2023-02-06T21:54:17.947Z,-2.00
2023-02-06T21:56:45.005Z,-2.10
2023-02-06T21:59:12.144Z,-2.10
2023-02-06T22:01:40.966Z,-2.10
2023-02-06T22:04:08.557Z,-2.20
2023-02-06T22:06:37.012Z,-2.10
2023-02-06T22:09:07.534Z,-2.20
2023-02-06T22:11:35.965Z,-2.10
2023-02-06T22:14:04.452Z,-2.20
2023-02-06T22:16:31.498Z,-2.20
2023-02-06T22:19:00.587Z,-2.20
2023-02-06T22:21:28.379Z,-2.20
2023-02-06T22:23:55.961Z,-2.30
2023-02-06T22:26:23.030Z,-2.30
2023-02-06T22:28:50.148Z,-2.30
2023-02-06T22:31:19.521Z,-2.30
2023-02-06T22:33:46.572Z,-2.30
2023-02-06T22:36:14.515Z,-2.30
2023-02-06T22:38:41.752Z,-2.30
2023-02-06T22:41:11.200Z,-2.30
2023-02-06T22:43:38.479Z,-2.40
2023-02-06T22:46:05.657Z,-2.40
2023-02-06T22:48:32.798Z,-2.40
2023-02-06T22:51:06.464Z,-2.40
2023-02-06T22:53:33.599Z,-2.40
2023-02-06T22:56:20.802Z,-2.40
2023-02-06T22:58:48.328Z,-2.50
2023-02-06T23:01:15.625Z,-2.40
2023-02-06T23:03:42.824Z,-2.40
2023-02-06T23:06:10.430Z,-2.50
2023-02-06T23:08:37.546Z,-2.40
2023-02-06T23:11:04.940Z,-2.40
2023-02-06T23:13:32.074Z,-2.40
2023-02-06T23:15:59.166Z,-2.50
2023-02-06T23:18:26.423Z,-2.50
2023-02-06T23:20:54.761Z,-2.50
2023-02-06T23:23:21.930Z,-2.50
2023-02-06T23:28:30.145Z,-2.60
2023-02-06T23:30:57.217Z,-2.70
2023-02-06T23:33:24.289Z,-2.70
2023-02-06T23:35:51.842Z,-2.70
2023-02-06T23:38:19.013Z,-2.70
2023-02-06T23:40:46.314Z,-2.80
2023-02-06T23:43:13.412Z,-2.80
2023-02-06T23:45:41.473Z,-2.80
2023-02-06T23:48:08.773Z,-2.80
2023-02-06T23:50:36.774Z,-2.80
2023-02-06T23:53:03.850Z,-2.80
2023-02-06T23:55:31.001Z,-2.80
2023-02-06T23:57:58.120Z,-2.80
